Milwaukee, WI (53207)

10:57 AM CST on February 14, 2016 (GMT -0600)
Bay View | | Change Station
CLOSE
Current Station
Personal Weather Station
Location: Milwaukee, WI
Elevation: 643 ft
Nearby Weather Stations

Elev 643 ft 42.99 °N, 87.89 °W | Updated 10 minutes ago

Overcast
Overcast
22.1 °F
Feels Like 16 °F
N
4.7
Wind Variable Wind from SSW

Today
High -- | Low -- °F
--% Chance of Precip.
Yesterday
High -- | Low -- °F
Precip. -- in
Pressure 30.30 in
Visibility 10.0 miles
Clouds Mostly Cloudy 2400 ft
Mostly Cloudy 3300 ft
Overcast 12000 ft
Windchill 16 °F
Dew Point 14 °F
Humidity 69%
Rainfall 0.00 in
Snow Depth Not available.
6:51 AM 5:21 PM
Waxing Crescent, 43% visible
METAR KMKE 141652Z 16016KT 10SM BKN024 BKN033 OVC120 M07/M12 A3025 RMK AO2 PK WND 16026/1607 SNE40 SLP260 P0000 T10721117
Pressure 30.30 in
Visibility 10.0 miles
Clouds Mostly Cloudy 2400 ft
Mostly Cloudy 3300 ft
Overcast 12000 ft
Windchill 16 °F
Dew Point 14 °F
Humidity 69%
Rainfall 0.00 in
Snow Depth Not available.
6:51 AM 5:21 PM
Waxing Crescent, 43% visible
METAR KMKE 141652Z 16016KT 10SM BKN024 BKN033 OVC120 M07/M12 A3025 RMK AO2 PK WND 16026/1607 SNE40 SLP260 P0000 T10721117

10-Day Weather Forecast

Almanac

Astronomy

Feb. 14, 2016 Rise Set
Actual Time
Civil Twilight
Nautical Twilight
Astronomical Twilight
Moon
Length of Visible Light
Length of Day
Tomorrow will be .
, % of the Moon is Illuminated

Today's Extremes

State Highs State Lows

Community

WunderPhotos

Upload Photos

1,892,837 photos uploaded!

WunderBlog® & News

Nearby

Air Quality

  Air Quality AQ Index Pollutant
Not available.

Snow Depth

Station Depth Elevation

Earthquake Activity

City Distance Mag. Time & Date
Minimum magnitude displayed is 2.5.

Coastal Water Temperatures

Place Temperature

Stations

Nearby Weather Stations

Station Location Temp. Windchill Dew Point Humidity Wind Precip. Elev Updated Type
                   

Watches & Warnings

There are currently no watches in effect.